sensor_id;sensor_type;location;lat;lon;timestamp;pressure;altitude;pressure_sealevel;temperature;humidity
2761;BME280;15420;48.636;9.798;2022-09-09T00:01:50;96422.47;;;16.73;80.10
2761;BME280;15420;48.636;9.798;2022-09-09T00:04:34;96411.22;;;16.70;81.41
2761;BME280;15420;48.636;9.798;2022-09-09T00:07:10;96412.09;;;16.67;81.14
2761;BME280;15420;48.636;9.798;2022-09-09T00:10:16;96408.66;;;16.65;81.39
2761;BME280;15420;48.636;9.798;2022-09-09T00:15:38;96413.91;;;16.60;81.83
2761;BME280;15420;48.636;9.798;2022-09-09T00:18:28;96410.44;;;16.58;81.62
2761;BME280;15420;48.636;9.798;2022-09-09T00:21:11;96408.75;;;16.53;81.32
2761;BME280;15420;48.636;9.798;2022-09-09T00:23:42;96407.88;;;16.55;81.60
2761;BME280;15420;48.636;9.798;2022-09-09T00:31:29;96410.47;;;16.57;81.21
2761;BME280;15420;48.636;9.798;2022-09-09T00:34:42;96406.16;;;16.54;82.60
2761;BME280;15420;48.636;9.798;2022-09-09T00:36:50;96407.91;;;16.52;82.42
2761;BME280;15420;48.636;9.798;2022-09-09T00:39:40;96407.91;;;16.49;82.03
2761;BME280;15420;48.636;9.798;2022-09-09T00:42:16;96402.75;;;16.46;81.97
2761;BME280;15420;48.636;9.798;2022-09-09T00:47:46;96406.25;;;16.42;82.78
2761;BME280;15420;48.636;9.798;2022-09-09T00:55:54;96405.44;;;16.35;82.21
2761;BME280;15420;48.636;9.798;2022-09-09T00:58:24;96405.44;;;16.35;83.18
2761;BME280;15420;48.636;9.798;2022-09-09T01:03:35;96408.06;;;16.32;83.17
2761;BME280;15420;48.636;9.798;2022-09-09T01:06:33;96408.06;;;16.32;82.32
2761;BME280;15420;48.636;9.798;2022-09-09T01:09:44;96404.63;;;16.29;82.60
2761;BME280;15420;48.636;9.798;2022-09-09T01:12:39;96400.28;;;16.28;83.49
2761;BME280;15420;48.636;9.798;2022-09-09T01:15:12;96400.31;;;16.26;83.40
2761;BME280;15420;48.636;9.798;2022-09-09T01:18:04;96397.69;;;16.26;83.95
2761;BME280;15420;48.636;9.798;2022-09-09T01:20:39;96396.84;;;16.23;83.34
2761;BME280;15420;48.636;9.798;2022-09-09T01:28:52;96396.91;;;16.17;84.15
2761;BME280;15420;48.636;9.798;2022-09-09T01:34:08;96396.06;;;16.15;83.43
2761;BME280;15420;48.636;9.798;2022-09-09T01:36:59;96389.13;;;16.15;84.24
2761;BME280;15420;48.636;9.798;2022-09-09T01:39:27;96389.13;;;16.12;84.06
2761;BME280;15420;48.636;9.798;2022-09-09T01:41:54;96384.81;;;16.13;84.49
2761;BME280;15420;48.636;9.798;2022-09-09T01:44:25;96385.69;;;16.12;83.54
2761;BME280;15420;48.636;9.798;2022-09-09T01:46:53;96390.03;;;16.08;84.47
2761;BME280;15420;48.636;9.798;2022-09-09T01:49:21;96393.50;;;16.09;84.55
2761;BME280;15420;48.636;9.798;2022-09-09T01:51:53;96382.25;;;16.07;84.25
2761;BME280;15420;48.636;9.798;2022-09-09T01:54:21;96384.84;;;16.07;84.71
2761;BME280;15420;48.636;9.798;2022-09-09T02:07:50;96374.53;;;15.96;84.33
2761;BME280;15420;48.636;9.798;2022-09-09T02:10:33;96375.38;;;15.98;84.23
2761;BME280;15420;48.636;9.798;2022-09-09T02:13:17;96374.53;;;15.96;84.32
2761;BME280;15420;48.636;9.798;2022-09-09T02:16:10;96374.53;;;15.96;83.83
2761;BME280;15420;48.636;9.798;2022-09-09T02:18:56;96385.78;;;15.95;84.41
2761;BME280;15420;48.636;9.798;2022-09-09T02:21:24;96387.56;;;15.88;84.82
2761;BME280;15420;48.636;9.798;2022-09-09T02:23:53;96386.69;;;15.89;84.13
2761;BME280;15420;48.636;9.798;2022-09-09T02:26:22;96379.75;;;15.93;84.25
2761;BME280;15420;48.636;9.798;2022-09-09T02:28:50;96384.06;;;15.92;84.13
2761;BME280;15420;48.636;9.798;2022-09-09T02:31:20;96385.81;;;15.89;84.19
2761;BME280;15420;48.636;9.798;2022-09-09T02:33:52;96376.31;;;15.89;83.96
2761;BME280;15420;48.636;9.798;2022-09-09T02:36:31;96383.25;;;15.87;84.47
2761;BME280;15420;48.636;9.798;2022-09-09T02:39:00;96380.66;;;15.87;84.53
2761;BME280;15420;48.636;9.798;2022-09-09T02:41:33;96383.25;;;15.87;84.24
2761;BME280;15420;48.636;9.798;2022-09-09T02:44:05;96380.66;;;15.87;84.29
2761;BME280;15420;48.636;9.798;2022-09-09T02:52:08;96371.13;;;15.88;84.44
2761;BME280;15420;48.636;9.798;2022-09-09T02:54:42;96378.91;;;15.88;84.50
2761;BME280;15420;48.636;9.798;2022-09-09T02:57:14;96387.56;;;15.87;84.87
2761;BME280;15420;48.636;9.798;2022-09-09T02:59:46;96377.19;;;15.84;84.45
2761;BME280;15420;48.636;9.798;2022-09-09T03:02:12;96386.69;;;15.88;84.20
2761;BME280;15420;48.636;9.798;2022-09-09T03:04:39;96379.75;;;15.90;84.05
2761;BME280;15420;48.636;9.798;2022-09-09T03:07:07;96372.81;;;15.90;84.73
2761;BME280;15420;48.636;9.798;2022-09-09T03:09:33;96368.50;;;15.89;84.29
2761;BME280;15420;48.636;9.798;2022-09-09T03:12:02;96370.22;;;15.92;85.20
2761;BME280;15420;48.636;9.798;2022-09-09T03:14:30;96365.03;;;15.90;85.34
2761;BME280;15420;48.636;9.798;2022-09-09T03:16:57;96381.47;;;15.94;84.76
2761;BME280;15420;48.636;9.798;2022-09-09T03:19:26;96385.78;;;15.95;85.39
2761;BME280;15420;48.636;9.798;2022-09-09T03:21:53;96380.59;;;15.96;84.93
2761;BME280;15420;48.636;9.798;2022-09-09T03:24:20;96376.25;;;15.97;85.29
2761;BME280;15420;48.636;9.798;2022-09-09T03:26:49;96375.34;;;16.01;84.68
2761;BME280;15420;48.636;9.798;2022-09-09T03:29:16;96374.47;;;16.02;84.95
2761;BME280;15420;48.636;9.798;2022-09-09T03:31:43;96387.47;;;16.03;85.15
2761;BME280;15420;48.636;9.798;2022-09-09T03:34:14;96388.31;;;16.06;84.51
2761;BME280;15420;48.636;9.798;2022-09-09T03:36:40;96378.78;;;16.05;85.44
2761;BME280;15420;48.636;9.798;2022-09-09T03:39:09;96387.44;;;16.07;85.02
2761;BME280;15420;48.636;9.798;2022-09-09T03:41:35;96392.63;;;16.10;85.46
2761;BME280;15420;48.636;9.798;2022-09-09T03:44:03;96396.94;;;16.11;85.19
2761;BME280;15420;48.636;9.798;2022-09-09T03:46:31;96396.94;;;16.11;85.64
2761;BME280;15420;48.636;9.798;2022-09-09T03:48:57;96406.47;;;16.13;84.59
2761;BME280;15420;48.636;9.798;2022-09-09T03:51:26;96403.84;;;16.16;84.94
2761;BME280;15420;48.636;9.798;2022-09-09T03:53:52;96403.84;;;16.18;85.02
2761;BME280;15420;48.636;9.798;2022-09-09T03:56:21;96403.81;;;16.21;84.33
2761;BME280;15420;48.636;9.798;2022-09-09T03:58:49;96402.94;;;16.23;84.33
2761;BME280;15420;48.636;9.798;2022-09-09T04:01:15;96408.09;;;16.26;85.33
2761;BME280;15420;48.636;9.798;2022-09-09T04:03:44;96410.69;;;16.29;85.02
2761;BME280;15420;48.636;9.798;2022-09-09T04:06:12;96419.31;;;16.33;84.10
2761;BME280;15420;48.636;9.798;2022-09-09T04:08:40;96419.28;;;16.36;84.18
2761;BME280;15420;48.636;9.798;2022-09-09T04:11:10;96422.75;;;16.40;84.97
2761;BME280;15420;48.636;9.798;2022-09-09T04:13:37;96422.72;;;16.41;84.54
2761;BME280;15420;48.636;9.798;2022-09-09T04:16:04;96421.84;;;16.44;85.83
2761;BME280;15420;48.636;9.798;2022-09-09T04:18:31;96417.50;;;16.46;86.31
2761;BME280;15420;48.636;9.798;2022-09-09T04:20:58;96423.53;;;16.48;86.45
2761;BME280;15420;48.636;9.798;2022-09-09T04:23:26;96423.53;;;16.51;87.84
2761;BME280;15420;48.636;9.798;2022-09-09T04:25:54;96417.44;;;16.52;89.31
2761;BME280;15420;48.636;9.798;2022-09-09T04:28:22;96413.97;;;16.53;90.17
2761;BME280;15420;48.636;9.798;2022-09-09T04:30:52;96403.56;;;16.51;91.33
2761;BME280;15420;48.636;9.798;2022-09-09T04:33:19;96409.66;;;16.47;91.12
2761;BME280;15420;48.636;9.798;2022-09-09T04:35:51;96403.59;;;16.47;92.13
2761;BME280;15420;48.636;9.798;2022-09-09T04:38:20;96395.84;;;16.44;92.67
2761;BME280;15420;48.636;9.798;2022-09-09T04:40:50;96385.44;;;16.44;93.65
2761;BME280;15420;48.636;9.798;2022-09-09T04:43:17;96389.78;;;16.42;94.07
2761;BME280;15420;48.636;9.798;2022-09-09T04:45:48;96390.66;;;16.39;94.19
2761;BME280;15420;48.636;9.798;2022-09-09T04:48:14;96401.91;;;16.41;94.58
2761;BME280;15420;48.636;9.798;2022-09-09T04:50:46;96403.69;;;16.36;94.19
2761;BME280;15420;48.636;9.798;2022-09-09T04:53:19;96401.97;;;16.35;93.70
2761;BME280;15420;48.636;9.798;2022-09-09T04:55:48;96410.66;;;16.34;94.79
2761;BME280;15420;48.636;9.798;2022-09-09T04:58:17;96410.63;;;16.35;93.76
2761;BME280;15420;48.636;9.798;2022-09-09T05:00:46;96408.91;;;16.33;95.28
2761;BME280;15420;48.636;9.798;2022-09-09T05:03:14;96416.72;;;16.34;95.52
2761;BME280;15420;48.636;9.798;2022-09-09T05:05:43;96413.22;;;16.35;95.57
2761;BME280;15420;48.636;9.798;2022-09-09T05:08:11;96414.09;;;16.38;95.98
2761;BME280;15420;48.636;9.798;2022-09-09T05:10:38;96413.22;;;16.39;96.89
2761;BME280;15420;48.636;9.798;2022-09-09T05:13:05;96412.34;;;16.40;96.62
2761;BME280;15420;48.636;9.798;2022-09-09T05:15:32;96412.31;;;16.41;97.25
2761;BME280;15420;48.636;9.798;2022-09-09T05:18:01;96415.81;;;16.39;96.81
2761;BME280;15420;48.636;9.798;2022-09-09T05:20:28;96417.53;;;16.40;96.67
2761;BME280;15420;48.636;9.798;2022-09-09T05:22:58;96413.22;;;16.37;97.80
2761;BME280;15420;48.636;9.798;2022-09-09T05:25:26;96419.31;;;16.34;97.00
2761;BME280;15420;48.636;9.798;2022-09-09T05:27:55;96419.31;;;16.34;98.08
2761;BME280;15420;48.636;9.798;2022-09-09T05:30:22;96422.78;;;16.33;98.34
2761;BME280;15420;48.636;9.798;2022-09-09T05:32:49;96421.94;;;16.30;98.02
2761;BME280;15420;48.636;9.798;2022-09-09T05:35:15;96422.81;;;16.30;98.82
2761;BME280;15420;48.636;9.798;2022-09-09T05:37:45;96424.53;;;16.33;98.21
2761;BME280;15420;48.636;9.798;2022-09-09T05:40:12;96420.19;;;16.33;98.65
2761;BME280;15420;48.636;9.798;2022-09-09T05:42:38;96416.69;;;16.36;99.51
2761;BME280;15420;48.636;9.798;2022-09-09T05:45:05;96415.84;;;16.35;99.69
2761;BME280;15420;48.636;9.798;2022-09-09T05:47:33;96421.03;;;16.34;100.00
2761;BME280;15420;48.636;9.798;2022-09-09T05:50:00;96424.50;;;16.36;99.89
2761;BME280;15420;48.636;9.798;2022-09-09T05:52:31;96423.63;;;16.35;100.00
2761;BME280;15420;48.636;9.798;2022-09-09T05:55:02;96418.44;;;16.35;100.00
2761;BME280;15420;48.636;9.798;2022-09-09T05:57:30;96429.72;;;16.34;100.00
2761;BME280;15420;48.636;9.798;2022-09-09T06:00:00;96423.63;;;16.39;100.00
2761;BME280;15420;48.636;9.798;2022-09-09T06:02:26;96421.88;;;16.41;100.00
2761;BME280;15420;48.636;9.798;2022-09-09T06:04:57;96424.44;;;16.45;100.00
2761;BME280;15420;48.636;9.798;2022-09-09T06:07:28;96420.91;;;16.51;100.00
2761;BME280;15420;48.636;9.798;2022-09-09T06:09:54;96429.53;;;16.57;100.00
2761;BME280;15420;48.636;9.798;2022-09-09T06:12:20;96426.88;;;16.62;100.00
2761;BME280;15420;48.636;9.798;2022-09-09T06:14:46;96425.97;;;16.69;100.00
2761;BME280;15420;48.636;9.798;2022-09-09T06:17:21;96432.84;;;16.76;100.00
2761;BME280;15420;48.636;9.798;2022-09-09T06:19:49;96428.47;;;16.81;100.00
2761;BME280;15420;48.636;9.798;2022-09-09T06:22:17;96420.56;;;16.90;100.00
2761;BME280;15420;48.636;9.798;2022-09-09T06:24:45;96416.16;;;16.97;100.00
2761;BME280;15420;48.636;9.798;2022-09-09T06:27:13;96424.78;;;17.04;100.00
2761;BME280;15420;48.636;9.798;2022-09-09T06:29:42;96422.97;;;17.09;100.00
2761;BME280;15420;48.636;9.798;2022-09-09T06:32:08;96423.81;;;17.12;100.00
2761;BME280;15420;48.636;9.798;2022-09-09T06:34:35;96424.63;;;17.19;100.00
2761;BME280;15420;48.636;9.798;2022-09-09T06:37:02;96426.31;;;17.23;100.00
2761;BME280;15420;48.636;9.798;2022-09-09T06:39:28;96421.06;;;17.24;100.00
2761;BME280;15420;48.636;9.798;2022-09-09T06:41:57;96420.19;;;17.25;100.00
2761;BME280;15420;48.636;9.798;2022-09-09T06:44:25;96428.00;;;17.27;100.00
2761;BME280;15420;48.636;9.798;2022-09-09T06:46:53;96434.91;;;17.31;100.00
2761;BME280;15420;48.636;9.798;2022-09-09T06:49:19;96431.34;;;17.38;100.00
2761;BME280;15420;48.636;9.798;2022-09-09T06:51:45;96421.72;;;17.43;100.00
2761;BME280;15420;48.636;9.798;2022-09-09T06:54:12;96429.47;;;17.49;99.66
2761;BME280;15420;48.636;9.798;2022-09-09T06:56:42;96424.19;;;17.55;100.00
2761;BME280;15420;48.636;9.798;2022-09-09T06:59:09;96424.97;;;17.62;99.93
2761;BME280;15420;48.636;9.798;2022-09-09T07:01:42;96429.28;;;17.68;99.36
2761;BME280;15420;48.636;9.798;2022-09-09T07:04:17;96428.31;;;17.73;99.83
2761;BME280;15420;48.636;9.798;2022-09-09T07:06:47;96436.91;;;17.80;99.61
2761;BME280;15420;48.636;9.798;2022-09-09T07:09:18;96426.38;;;17.87;98.31
2761;BME280;15420;48.636;9.798;2022-09-09T07:11:46;96438.47;;;17.94;98.27
2761;BME280;15420;48.636;9.798;2022-09-09T07:14:13;96430.56;;;18.01;98.40
2761;BME280;15420;48.636;9.798;2022-09-09T07:16:43;96434.81;;;18.08;99.17
2761;BME280;15420;48.636;9.798;2022-09-09T07:19:12;96438.19;;;18.14;98.33
2761;BME280;15420;48.636;9.798;2022-09-09T07:21:40;96426.75;;;18.23;97.91
2761;BME280;15420;48.636;9.798;2022-09-09T07:24:06;96428.41;;;18.28;97.92
2761;BME280;15420;48.636;9.798;2022-09-09T07:26:38;96431.78;;;18.37;97.46
2761;BME280;15420;48.636;9.798;2022-09-09T07:29:04;96435.13;;;18.45;97.59
2761;BME280;15420;48.636;9.798;2022-09-09T07:31:35;96441.09;;;18.51;96.96
2761;BME280;15420;48.636;9.798;2022-09-09T07:34:04;96439.25;;;18.59;96.39
2761;BME280;15420;48.636;9.798;2022-09-09T07:36:33;96435.69;;;18.67;95.91
2761;BME280;15420;48.636;9.798;2022-09-09T07:39:05;96439.88;;;18.74;95.53
2761;BME280;15420;48.636;9.798;2022-09-09T07:41:44;96444.09;;;18.81;95.36
2761;BME280;15420;48.636;9.798;2022-09-09T07:44:18;96446.63;;;18.87;95.58
2761;BME280;15420;48.636;9.798;2022-09-09T07:46:45;96449.97;;;18.93;95.56
2761;BME280;15420;48.636;9.798;2022-09-09T07:49:15;96446.38;;;19.01;94.94
2761;BME280;15420;48.636;9.798;2022-09-09T07:51:46;96448.88;;;19.07;94.51
2761;BME280;15420;48.636;9.798;2022-09-09T07:54:15;96453.94;;;19.16;94.69
2761;BME280;15420;48.636;9.798;2022-09-09T07:56:42;96445.09;;;19.23;94.45
2761;BME280;15420;48.636;9.798;2022-09-09T07:59:08;96451.06;;;19.31;94.40
2761;BME280;15420;48.636;9.798;2022-09-09T08:01:37;96449.19;;;19.38;94.20
2761;BME280;15420;48.636;9.798;2022-09-09T08:04:10;96446.38;;;19.48;94.06
2761;BME280;15420;48.636;9.798;2022-09-09T08:06:44;96447.09;;;19.56;93.78
2761;BME280;15420;48.636;9.798;2022-09-09T08:09:10;96446.13;;;19.62;93.60
2761;BME280;15420;48.636;9.798;2022-09-09T08:11:37;96444.22;;;19.70;93.45
2761;BME280;15420;48.636;9.798;2022-09-09T08:14:04;96446.63;;;19.79;92.72
2761;BME280;15420;48.636;9.798;2022-09-09T08:16:34;96453.41;;;19.88;91.89
2761;BME280;15420;48.636;9.798;2022-09-09T08:19:04;96454.13;;;19.95;91.84
2761;BME280;15420;48.636;9.798;2022-09-09T08:21:33;96469.66;;;20.02;90.96
2761;BME280;15420;48.636;9.798;2022-09-09T08:24:03;96473.09;;;20.06;89.98
2761;BME280;15420;48.636;9.798;2022-09-09T08:26:36;96479.13;;;20.09;89.65
2761;BME280;15420;48.636;9.798;2022-09-09T08:29:05;96483.41;;;20.12;88.41
2761;BME280;15420;48.636;9.798;2022-09-09T08:31:37;96487.78;;;20.11;87.91
2761;BME280;15420;48.636;9.798;2022-09-09T08:34:05;96472.09;;;20.11;87.48
2761;BME280;15420;48.636;9.798;2022-09-09T08:36:39;96468.66;;;20.09;86.45
2761;BME280;15420;48.636;9.798;2022-09-09T08:39:07;96479.13;;;20.09;86.46
2761;BME280;15420;48.636;9.798;2022-09-09T08:44:40;96488.53;;;20.18;84.54
2761;BME280;15420;48.636;9.798;2022-09-09T08:54:48;96481.00;;;20.44;84.20
2761;BME280;15420;48.636;9.798;2022-09-09T08:57:21;96474.66;;;20.54;82.99
2761;BME280;15420;48.636;9.798;2022-09-09T08:59:53;96470.13;;;20.61;82.86
2761;BME280;15420;48.636;9.798;2022-09-09T09:10:49;96476.19;;;20.97;81.51
2761;BME280;15420;48.636;9.798;2022-09-09T09:13:17;96479.53;;;21.04;80.30
2761;BME280;15420;48.636;9.798;2022-09-09T09:15:48;96479.25;;;21.14;79.42
2761;BME280;15420;48.636;9.798;2022-09-09T09:18:17;96474.72;;;21.21;78.69
2761;BME280;15420;48.636;9.798;2022-09-09T09:21:08;96476.25;;;21.31;78.11
2761;BME280;15420;48.636;9.798;2022-09-09T09:23:58;96485.63;;;21.40;78.21
2761;BME280;15420;48.636;9.798;2022-09-09T09:26:34;96477.50;;;21.49;77.44
2761;BME280;15420;48.636;9.798;2022-09-09T09:29:14;96438.47;;;21.38;76.86
2761;BME280;15420;48.636;9.798;2022-09-09T09:31:47;96473.53;;;21.67;76.27
2761;BME280;15420;48.636;9.798;2022-09-09T09:34:15;96469.00;;;21.72;76.31
2761;BME280;15420;48.636;9.798;2022-09-09T09:36:44;96471.44;;;21.79;74.75
2761;BME280;15420;48.636;9.798;2022-09-09T09:39:25;96464.16;;;21.87;73.90
2761;BME280;15420;48.636;9.798;2022-09-09T09:41:54;96464.03;;;21.92;73.61
2761;BME280;15420;48.636;9.798;2022-09-09T09:44:32;96463.72;;;22.04;73.34
2761;BME280;15420;48.636;9.798;2022-09-09T09:47:14;96460.91;;;22.10;72.46
2761;BME280;15420;48.636;9.798;2022-09-09T09:49:54;96470.31;;;22.17;71.36
2761;BME280;15420;48.636;9.798;2022-09-09T09:52:29;96477.97;;;22.25;69.94
2761;BME280;15420;48.636;9.798;2022-09-09T09:55:03;96462.97;;;22.29;68.06
2761;BME280;15420;48.636;9.798;2022-09-09T09:57:40;96458.44;;;22.34;67.47
2761;BME280;15420;48.636;9.798;2022-09-09T10:00:25;96455.50;;;22.44;66.98
2761;BME280;15420;48.636;9.798;2022-09-09T10:02:51;96456.22;;;22.49;66.58
2761;BME280;15420;48.636;9.798;2022-09-09T10:05:29;96454.06;;;22.62;66.21
2761;BME280;15420;48.636;9.798;2022-09-09T10:08:17;96451.09;;;22.73;65.74
2761;BME280;15420;48.636;9.798;2022-09-09T10:19:13;96443.16;;;23.01;64.25
2761;BME280;15420;48.636;9.798;2022-09-09T10:22:16;96438.50;;;23.09;64.38
2761;BME280;15420;48.636;9.798;2022-09-09T10:30:56;96438.50;;;23.09;63.80
2761;BME280;15420;48.636;9.798;2022-09-09T10:36:12;96430.41;;;23.15;62.60
2761;BME280;15420;48.636;9.798;2022-09-09T10:42:07;96431.25;;;23.15;59.51
2761;BME280;15420;48.636;9.798;2022-09-09T10:44:53;96429.38;;;23.19;59.16
2761;BME280;15420;48.636;9.798;2022-09-09T10:48:08;96430.13;;;23.23;58.41
2761;BME280;15420;48.636;9.798;2022-09-09T10:56:17;96435.75;;;23.63;57.63
2761;BME280;15420;48.636;9.798;2022-09-09T10:59:02;96437.81;;;23.78;54.86
2761;BME280;15420;48.636;9.798;2022-09-09T11:01:47;96439.31;;;23.86;52.60
2761;BME280;15420;48.636;9.798;2022-09-09T11:04:35;96430.97;;;23.96;51.93
2761;BME280;15420;48.636;9.798;2022-09-09T11:07:14;96429.84;;;24.03;51.54
2761;BME280;15420;48.636;9.798;2022-09-09T11:09:58;96431.56;;;24.04;50.48
2761;BME280;15420;48.636;9.798;2022-09-09T11:12:30;96436.81;;;24.04;50.08
2761;BME280;15420;48.636;9.798;2022-09-09T11:15:22;96442.81;;;24.08;50.08
2761;BME280;15420;48.636;9.798;2022-09-09T11:18:01;96435.84;;;24.07;51.10
2761;BME280;15420;48.636;9.798;2022-09-09T11:20:35;96434.81;;;24.11;51.23
2761;BME280;15420;48.636;9.798;2022-09-09T11:23:16;96441.56;;;24.18;50.81
2761;BME280;15420;48.636;9.798;2022-09-09T11:25:58;96431.75;;;24.22;50.46
2761;BME280;15420;48.636;9.798;2022-09-09T11:37:31;96425.25;;;24.75;49.12
2761;BME280;15420;48.636;9.798;2022-09-09T11:40:28;96422.78;;;24.93;47.93
2761;BME280;15420;48.636;9.798;2022-09-09T11:43:23;96418.59;;;25.09;47.95
2761;BME280;15420;48.636;9.798;2022-09-09T11:45:58;96413.84;;;25.17;47.10
2761;BME280;15420;48.636;9.798;2022-09-09T11:53:55;96395.63;;;25.72;45.00
2761;BME280;15420;48.636;9.798;2022-09-09T11:59:06;96400.50;;;26.37;43.15
2761;BME280;15420;48.636;9.798;2022-09-09T12:01:43;96402.91;;;26.78;41.66
2761;BME280;15420;48.636;9.798;2022-09-09T12:04:30;96409.94;;;27.14;40.73
2761;BME280;15420;48.636;9.798;2022-09-09T12:10:03;96407.94;;;27.86;37.11
2761;BME280;15420;48.636;9.798;2022-09-09T12:12:42;96406.88;;;28.22;36.59
2761;BME280;15420;48.636;9.798;2022-09-09T12:17:48;96427.84;;;28.89;35.35
2761;BME280;15420;48.636;9.798;2022-09-09T12:39:56;96439.41;;;29.18;37.15
2761;BME280;15420;48.636;9.798;2022-09-09T12:42:28;96440.56;;;29.28;36.33
2761;BME280;15420;48.636;9.798;2022-09-09T12:45:02;96441.41;;;29.45;36.72
2761;BME280;15420;48.636;9.798;2022-09-09T12:47:39;96432.06;;;29.68;36.00
2761;BME280;15420;48.636;9.798;2022-09-09T12:50:36;96428.47;;;29.97;36.64
2761;BME280;15420;48.636;9.798;2022-09-09T12:55:57;96425.38;;;30.46;33.60
2761;BME280;15420;48.636;9.798;2022-09-09T12:58:27;96425.75;;;30.68;33.01
2761;BME280;15420;48.636;9.798;2022-09-09T13:00:58;96417.31;;;30.88;33.14
2761;BME280;15420;48.636;9.798;2022-09-09T13:03:26;96416.00;;;31.08;32.49
2761;BME280;15420;48.636;9.798;2022-09-09T13:05:53;96421.59;;;31.31;32.18
2761;BME280;15420;48.636;9.798;2022-09-09T13:08:26;96432.06;;;31.46;31.08
2761;BME280;15420;48.636;9.798;2022-09-09T13:11:00;96426.31;;;31.65;30.77
2761;BME280;15420;48.636;9.798;2022-09-09T13:16:00;96420.69;;;32.08;31.39
2761;BME280;15420;48.636;9.798;2022-09-09T13:18:29;96416.97;;;32.23;30.28
2761;BME280;15420;48.636;9.798;2022-09-09T13:20:57;96414.13;;;32.37;30.37
2761;BME280;15420;48.636;9.798;2022-09-09T13:23:34;96416.44;;;32.55;30.41
2761;BME280;15420;48.636;9.798;2022-09-09T13:26:06;96406.38;;;32.58;29.87
2761;BME280;15420;48.636;9.798;2022-09-09T13:28:51;96409.00;;;32.47;30.35
2761;BME280;15420;48.636;9.798;2022-09-09T13:31:28;96410.91;;;32.45;29.99
2761;BME280;15420;48.636;9.798;2022-09-09T13:33:55;96407.47;;;32.56;30.23
2761;BME280;15420;48.636;9.798;2022-09-09T13:36:35;96403.44;;;32.74;29.27
2761;BME280;15420;48.636;9.798;2022-09-09T13:39:12;96406.66;;;32.79;29.97
2761;BME280;15420;48.636;9.798;2022-09-09T13:41:44;96398.09;;;32.87;29.19
2761;BME280;15420;48.636;9.798;2022-09-09T13:44:26;96405.03;;;32.89;29.38
2761;BME280;15420;48.636;9.798;2022-09-09T13:49:30;96396.84;;;32.79;30.13
2761;BME280;15420;48.636;9.798;2022-09-09T13:54:39;96400.25;;;32.45;30.64
2761;BME280;15420;48.636;9.798;2022-09-09T13:57:20;96399.09;;;32.36;30.23
2761;BME280;15420;48.636;9.798;2022-09-09T13:59:47;96393.34;;;32.30;31.45
2761;BME280;15420;48.636;9.798;2022-09-09T14:02:15;96396.59;;;32.09;30.78
2761;BME280;15420;48.636;9.798;2022-09-09T14:04:42;96390.94;;;31.89;30.65
2761;BME280;15420;48.636;9.798;2022-09-09T14:07:16;96391.06;;;31.74;30.72
2761;BME280;15420;48.636;9.798;2022-09-09T14:09:44;96387.31;;;31.64;31.06
2761;BME280;15420;48.636;9.798;2022-09-09T14:12:14;96384.00;;;31.61;31.47
2761;BME280;15420;48.636;9.798;2022-09-09T14:14:41;96386.88;;;31.45;31.62
2761;BME280;15420;48.636;9.798;2022-09-09T14:17:11;96380.03;;;31.28;31.30
2761;BME280;15420;48.636;9.798;2022-09-09T14:19:40;96379.47;;;31.10;32.28
2761;BME280;15420;48.636;9.798;2022-09-09T14:22:08;96375.81;;;30.99;32.92
2761;BME280;15420;48.636;9.798;2022-09-09T14:24:38;96375.38;;;30.92;32.91
2761;BME280;15420;48.636;9.798;2022-09-09T14:27:06;96379.19;;;30.88;33.33
2761;BME280;15420;48.636;9.798;2022-09-09T14:29:35;96375.38;;;30.65;32.63
2761;BME280;15420;48.636;9.798;2022-09-09T14:32:03;96374.69;;;30.35;34.16
2761;BME280;15420;48.636;9.798;2022-09-09T14:34:30;96381.38;;;29.99;34.12
2761;BME280;15420;48.636;9.798;2022-09-09T14:37:00;96388.88;;;29.64;34.65
2761;BME280;15420;48.636;9.798;2022-09-09T14:39:26;96382.81;;;29.32;34.30
2761;BME280;15420;48.636;9.798;2022-09-09T14:41:52;96392.88;;;29.27;35.07
2761;BME280;15420;48.636;9.798;2022-09-09T14:44:18;96393.53;;;29.30;34.54
2761;BME280;15420;48.636;9.798;2022-09-09T14:46:47;96396.78;;;29.36;34.46
2761;BME280;15420;48.636;9.798;2022-09-09T14:49:16;96386.44;;;29.31;33.83
2761;BME280;15420;48.636;9.798;2022-09-09T14:51:42;96385.25;;;29.21;33.65
2761;BME280;15420;48.636;9.798;2022-09-09T14:54:08;96387.41;;;29.00;33.05
2761;BME280;15420;48.636;9.798;2022-09-09T14:56:34;96380.75;;;28.77;32.50
2761;BME280;15420;48.636;9.798;2022-09-09T14:59:06;96389.00;;;28.57;32.78
2761;BME280;15420;48.636;9.798;2022-09-09T15:01:35;96386.97;;;28.46;33.71
2761;BME280;15420;48.636;9.798;2022-09-09T15:04:06;96385.06;;;28.48;33.79
2761;BME280;15420;48.636;9.798;2022-09-09T15:06:39;96383.19;;;28.50;34.25
2761;BME280;15420;48.636;9.798;2022-09-09T15:09:12;96385.06;;;28.48;34.29
2761;BME280;15420;48.636;9.798;2022-09-09T15:11:41;96377.81;;;28.52;33.70
2761;BME280;15420;48.636;9.798;2022-09-09T15:14:08;96380.38;;;28.53;34.17
2761;BME280;15420;48.636;9.798;2022-09-09T15:16:38;96381.31;;;28.52;34.87
2761;BME280;15420;48.636;9.798;2022-09-09T15:19:07;96374.47;;;28.48;34.36
2761;BME280;15420;48.636;9.798;2022-09-09T15:21:36;96375.16;;;28.36;34.80
2761;BME280;15420;48.636;9.798;2022-09-09T15:24:03;96377.31;;;28.29;35.10
2761;BME280;15420;48.636;9.798;2022-09-09T15:26:33;96377.13;;;28.32;34.74
2761;BME280;15420;48.636;9.798;2022-09-09T15:29:01;96375.16;;;28.36;35.51
2761;BME280;15420;48.636;9.798;2022-09-09T15:31:33;96374.81;;;28.42;34.75
2761;BME280;15420;48.636;9.798;2022-09-09T15:34:05;96369.34;;;28.45;34.88
2761;BME280;15420;48.636;9.798;2022-09-09T15:36:44;96376.59;;;28.57;35.15
2761;BME280;15420;48.636;9.798;2022-09-09T15:39:18;96367.69;;;28.58;34.76
2761;BME280;15420;48.636;9.798;2022-09-09T15:41:45;96374.38;;;28.50;34.60
2761;BME280;15420;48.636;9.798;2022-09-09T15:44:21;96372.34;;;28.39;34.96
2761;BME280;15420;48.636;9.798;2022-09-09T15:46:57;96366.88;;;28.26;35.38
2761;BME280;15420;48.636;9.798;2022-09-09T15:49:25;96365.03;;;28.11;35.38
2761;BME280;15420;48.636;9.798;2022-09-09T15:51:58;96367.63;;;27.97;35.09
2761;BME280;15420;48.636;9.798;2022-09-09T15:54:33;96377.19;;;27.84;35.49
2761;BME280;15420;48.636;9.798;2022-09-09T15:57:11;96368.09;;;27.72;36.48
2761;BME280;15420;48.636;9.798;2022-09-09T15:59:44;96359.31;;;27.54;35.81